createdAt,value
2023-03-01T00:10:45.377Z,0.00
2023-03-01T00:25:45.948Z,0.00
2023-03-01T00:40:46.583Z,0.00
2023-03-01T00:55:47.332Z,0.00
2023-03-01T01:10:47.826Z,0.00
2023-03-01T01:25:48.429Z,0.00
2023-03-01T01:40:49.054Z,0.00
2023-03-01T01:55:49.642Z,0.00
2023-03-01T02:10:50.692Z,0.00
2023-03-01T02:25:50.872Z,0.00
2023-03-01T02:40:51.903Z,0.00
2023-03-01T02:55:51.983Z,0.00
2023-03-01T03:10:52.200Z,0.00
2023-03-01T03:25:53.220Z,0.00
2023-03-01T03:40:53.435Z,0.00
2023-03-01T03:55:54.462Z,0.00
2023-03-01T04:10:55.147Z,0.00
2023-03-01T04:25:55.407Z,0.00
2023-03-01T04:40:55.958Z,0.00
2023-03-01T04:55:56.612Z,0.00
2023-03-01T05:10:56.842Z,0.00
2023-03-01T05:25:57.305Z,0.00
2023-03-01T05:40:58.125Z,0.00
2023-03-01T05:55:58.771Z,11.25
2023-03-01T06:10:59.303Z,33.75
2023-03-01T06:25:59.648Z,67.50
2023-03-01T06:41:00.007Z,106.88
2023-03-01T06:56:00.508Z,135.00
2023-03-01T07:11:01.596Z,146.25
2023-03-01T07:26:02.164Z,174.38
2023-03-01T07:41:02.805Z,219.38
2023-03-01T07:56:03.413Z,309.38
2023-03-01T08:11:04.042Z,343.12
2023-03-01T08:26:05.052Z,697.50
2023-03-01T08:41:05.787Z,815.62
2023-03-01T08:56:06.059Z,1293.75
2023-03-01T09:11:06.885Z,1636.88
2023-03-01T09:26:07.421Z,1884.38
2023-03-01T09:41:07.934Z,2182.50
2023-03-01T09:56:08.885Z,2446.88
2023-03-01T10:11:09.041Z,2086.88
2023-03-01T10:26:09.304Z,3082.50
2023-03-01T10:41:09.781Z,2925.00
2023-03-01T10:56:09.862Z,3600.00
2023-03-01T11:11:10.452Z,3898.12
2023-03-01T11:26:13.837Z,3886.88
2023-03-01T11:41:14.123Z,3628.12
2023-03-01T11:56:15.113Z,3954.38
2023-03-01T12:11:14.795Z,4460.62
2023-03-01T12:26:15.404Z,3768.75
2023-03-01T12:41:16.069Z,2401.88
2023-03-01T12:56:16.573Z,4320.00
2023-03-01T13:11:17.211Z,4089.38
2023-03-01T13:26:17.763Z,4353.75
2023-03-01T13:41:18.359Z,4370.62
2023-03-01T13:56:18.502Z,4100.62
2023-03-01T14:11:19.265Z,3937.50
2023-03-01T14:26:19.727Z,3633.75
2023-03-01T14:41:20.707Z,1856.25
2023-03-01T14:56:20.869Z,3414.38
2023-03-01T15:11:21.486Z,3020.62
2023-03-01T15:26:22.489Z,2199.38
2023-03-01T15:41:22.694Z,264.38
2023-03-01T15:56:23.693Z,123.75
2023-03-01T16:11:23.378Z,84.38
2023-03-01T16:26:23.994Z,50.62
2023-03-01T16:41:24.683Z,22.50
2023-03-01T16:56:25.843Z,5.62
2023-03-01T17:11:26.403Z,0.00
2023-03-01T17:26:27.061Z,0.00
2023-03-01T17:41:28.075Z,0.00
2023-03-01T17:56:28.324Z,0.00
2023-03-01T18:11:28.879Z,0.00
2023-03-01T18:26:30.135Z,0.00
2023-03-01T18:41:31.631Z,0.00
2023-03-01T18:56:33.493Z,0.00
2023-03-01T19:11:34.459Z,0.00
2023-03-01T19:26:35.534Z,0.00
2023-03-01T19:41:36.474Z,0.00
2023-03-01T19:56:38.126Z,0.00
2023-03-01T20:11:38.742Z,0.00
2023-03-01T20:26:39.363Z,0.00
2023-03-01T20:41:39.964Z,0.00
2023-03-01T20:56:40.505Z,0.00
2023-03-01T21:11:40.709Z,0.00
2023-03-01T21:26:41.354Z,0.00
2023-03-01T21:41:41.398Z,0.00
2023-03-01T21:56:42.738Z,0.00
2023-03-01T22:11:43.652Z,0.00
2023-03-01T22:26:44.192Z,0.00
2023-03-01T22:41:44.429Z,0.00
2023-03-01T22:56:45.001Z,0.00
2023-03-01T23:11:46.037Z,0.00
2023-03-01T23:26:46.241Z,0.00
2023-03-01T23:41:47.273Z,0.00
2023-03-01T23:56:46.963Z,0.00
